Time;durP1;ratioP1;P1;durP2;ratioP2;P2;SDS_P1;SDS_P2;PMS_P1;PMS_P2;Temp;Humidity;BMP_temperature;BMP_pressure;BME280_temperature;BME280_humidity;BME280_pressure;Samples;Min_cycle;Max_cycle;Signal;HPM_P1;HPM_P2
2022/11/16 00:00:17;;;;;;;;;;;;;;;16.41;100.00;97470.34;5020149;28;19921;-42
2022/11/16 00:02:42;;;;;;;;;;;;;;;17.14;100.00;97455.72;5020455;28;19925;-41
2022/11/16 00:05:08;;;;;;;;;;;;;;;15.82;100.00;97458.56;5019006;28;19921;-41
2022/11/16 00:07:33;;;;;;;;;;;;;;;16.83;100.00;97454.03;5017960;28;19952;-41
2022/11/16 00:09:58;;;;;;;;;;;;;;;17.53;100.00;97444.69;5017424;28;19967;-41
2022/11/16 00:12:23;;;;;;;;;;;;;;;17.22;100.00;97444.69;5019980;28;19928;-41
2022/11/16 00:14:49;;;;;;;;;;;;;;;16.72;100.00;97447.91;5020404;28;19928;-41
2022/11/16 00:17:14;;;;;;;;;;;;;;;16.10;100.00;97443.41;5018673;28;19937;-41
2022/11/16 00:19:39;;;;;;;;;;;;;;;16.45;100.00;97444.97;5017770;28;19917;-41
2022/11/16 00:22:04;;;;;;;;;;;;;;;15.73;100.00;97448.88;5020017;28;20343;-41
2022/11/16 00:24:29;;;;;;;;;;;;;;;15.72;100.00;97449.84;5020321;28;20370;-41
2022/11/16 00:26:55;;;;;;;;;;;;;;;15.51;100.00;97448.88;5019260;28;20390;-41
2022/11/16 00:29:21;;;;;;;;;;;;;;;15.81;100.00;97451.72;5019437;28;20004;-41
2022/11/16 00:31:46;;;;;;;;;;;;;;;16.89;100.00;97436.13;5017855;28;19951;-41
2022/11/16 00:34:12;;;;;;;;;;;;;;;16.49;100.00;97439.41;5019078;28;19921;-41
2022/11/16 00:36:37;;;;;;;;;;;;;;;16.27;100.00;97429.09;5018412;28;19921;-41
2022/11/16 00:39:02;;;;;;;;;;;;;;;16.27;100.00;97427.31;5017967;28;19921;-41
2022/11/16 00:41:27;;;;;;;;;;;;;;;16.72;100.00;97427.13;5018555;28;19921;-41
2022/11/16 00:43:52;;;;;;;;;;;;;;;16.99;100.00;97424.97;5019794;28;19929;-42
2022/11/16 00:46:18;;;;;;;;;;;;;;;17.44;100.00;97411.66;5020235;28;19928;-42
2022/11/16 00:48:43;;;;;;;;;;;;;;;16.41;100.00;97418.38;5016507;28;19921;-42
2022/11/16 00:51:08;;;;;;;;;;;;;;;16.27;100.00;97416.09;5019989;28;19953;-42
2022/11/16 00:53:33;;;;;;;;;;;;;;;16.61;100.00;97408.16;5016778;28;20026;-43
2022/11/16 00:55:59;;;;;;;;;;;;;;;17.09;100.00;97403.28;5020462;28;19953;-42
2022/11/16 00:58:24;;;;;;;;;;;;;;;16.36;100.00;97415.34;5018519;28;19928;-42
2022/11/16 01:00:49;;;;;;;;;;;;;;;17.63;100.00;97395.25;5018778;28;19921;-42
2022/11/16 01:03:14;;;;;;;;;;;;;;;17.50;100.00;97401.53;5020213;28;19925;-42
2022/11/16 01:05:40;;;;;;;;;;;;;;;17.58;100.00;97384.44;5019282;28;19927;-42
2022/11/16 01:08:05;;;;;;;;;;;;;;;17.95;100.00;97390.72;5019062;28;19921;-42
2022/11/16 01:10:30;;;;;;;;;;;;;;;17.47;100.00;97381.00;5018644;28;19921;-41
2022/11/16 01:12:55;;;;;;;;;;;;;;;17.90;100.00;97385.09;5020035;28;20223;-42
2022/11/16 01:15:21;;;;;;;;;;;;;;;18.07;100.00;97373.19;5019720;28;19928;-42
2022/11/16 01:17:47;;;;;;;;;;;;;;;17.96;100.00;97381.94;5020419;28;19923;-42
2022/11/16 01:20:14;;;;;;;;;;;;;;;17.93;100.00;97384.00;5016442;28;19921;-42
2022/11/16 01:22:39;;;;;;;;;;;;;;;17.90;100.00;97377.28;5018805;28;19925;-42
2022/11/16 01:25:05;;;;;;;;;;;;;;;18.08;100.00;97376.59;5019083;28;19917;-42
2022/11/16 01:27:30;;;;;;;;;;;;;;;17.67;100.00;97381.84;5016688;28;20016;-42
2022/11/16 01:29:56;;;;;;;;;;;;;;;16.41;100.00;97397.59;5016641;28;20196;-42
2022/11/16 01:32:21;;;;;;;;;;;;;;;17.02;100.00;97401.34;5019292;28;20020;-42
2022/11/16 01:34:46;;;;;;;;;;;;;;;16.39;100.00;97396.09;5017970;28;19992;-42
2022/11/16 01:37:11;;;;;;;;;;;;;;;17.53;100.00;97379.63;5018422;28;20111;-42
2022/11/16 01:39:37;;;;;;;;;;;;;;;17.18;100.00;97374.84;5016775;28;19961;-42
2022/11/16 01:42:02;;;;;;;;;;;;;;;16.67;100.00;97376.44;5017788;28;19921;-42
2022/11/16 01:44:30;;;;;;;;;;;;;;;16.76;100.00;97385.25;5019247;28;20027;-42
2022/11/16 01:46:56;;;;;;;;;;;;;;;16.23;100.00;97386.94;5018777;28;19979;-41
2022/11/16 01:49:21;;;;;;;;;;;;;;;15.46;100.00;97395.59;5014882;28;20366;-42
2022/11/16 01:51:48;;;;;;;;;;;;;;;15.76;100.00;97395.91;5018170;28;19995;-42
2022/11/16 01:54:13;;;;;;;;;;;;;;;16.78;100.00;97373.78;5017308;28;19972;-42
2022/11/16 01:56:38;;;;;;;;;;;;;;;16.09;100.00;97376.84;5019611;28;19921;-41
2022/11/16 01:59:03;;;;;;;;;;;;;;;15.42;100.00;97393.34;5015925;28;19928;-41
2022/11/16 02:01:29;;;;;;;;;;;;;;;15.39;100.00;97384.00;5017843;28;19921;-41
2022/11/16 02:03:54;;;;;;;;;;;;;;;15.21;100.00;97385.44;5018400;28;19917;-41
2022/11/16 02:06:25;;;;;;;;;;;;;;;14.83;100.00;97396.97;5017887;28;20468;-42
2022/11/16 02:11:49;;;;;;;;;;;;;;;15.30;100.00;97384.72;5016860;28;20023;-42
2022/11/16 02:14:14;;;;;;;;;;;;;;;15.47;100.00;97386.03;5018718;28;19921;-42
2022/11/16 02:16:47;;;;;;;;;;;;;;;14.78;100.00;97386.09;5019073;28;19992;-42
2022/11/16 02:19:23;;;;;;;;;;;;;;;14.56;100.00;97390.31;5015175;28;19925;-41
2022/11/16 02:22:07;;;;;;;;;;;;;;;15.12;100.00;97384.41;5016968;28;19925;-41
2022/11/16 02:24:32;;;;;;;;;;;;;;;15.51;100.00;97378.81;5018032;28;20108;-42
2022/11/16 02:26:57;;;;;;;;;;;;;;;14.93;100.00;97377.16;5017456;28;20562;-41
2022/11/16 02:29:33;;;;;;;;;;;;;;;15.51;100.00;97381.41;5016660;28;19968;-42
2022/11/16 02:31:58;;;;;;;;;;;;;;;14.04;100.00;97383.72;5033961;28;19964;-42
2022/11/16 02:34:23;;;;;;;;;;;;;;;14.90;100.00;97382.59;5019000;28;19924;-41
2022/11/16 02:36:49;;;;;;;;;;;;;;;15.12;100.00;97376.63;5015668;28;19921;-42
2022/11/16 02:39:16;;;;;;;;;;;;;;;14.73;100.00;97376.06;5016685;28;19932;-42
2022/11/16 02:41:41;;;;;;;;;;;;;;;14.00;100.00;97374.50;5000158;28;20298;-41
2022/11/16 02:44:33;;;;;;;;;;;;;;;14.20;100.00;97386.84;5016511;28;19921;-41
2022/11/16 02:46:59;;;;;;;;;;;;;;;14.59;100.00;97384.88;5016251;28;20399;-41
2022/11/16 02:49:24;;;;;;;;;;;;;;;14.06;100.00;97375.84;5014759;28;19921;-41
2022/11/16 02:51:49;;;;;;;;;;;;;;;14.67;100.00;97378.31;5017472;28;19928;-42
2022/11/16 02:54:18;;;;;;;;;;;;;;;14.00;100.00;97387.44;5017493;28;19921;-42
2022/11/16 02:57:02;;;;;;;;;;;;;;;13.98;100.00;97392.75;5017268;28;19952;-41
2022/11/16 02:59:32;;;;;;;;;;;;;;;14.74;100.00;97387.28;5017213;28;19968;-42
2022/11/16 03:01:57;;;;;;;;;;;;;;;14.19;100.00;97387.78;5017876;28;20468;-42
2022/11/16 03:04:33;;;;;;;;;;;;;;;14.25;100.00;97381.31;5021932;28;20003;-42
2022/11/16 03:06:58;;;;;;;;;;;;;;;14.14;100.00;97389.03;5019020;28;20344;-41
2022/11/16 03:09:25;;;;;;;;;;;;;;;13.87;100.00;97386.69;5020287;28;19928;-42
2022/11/16 03:11:59;;;;;;;;;;;;;;;13.97;100.00;97385.09;5021329;28;19944;-42
2022/11/16 03:14:54;;;;;;;;;;;;;;;14.38;100.00;97383.84;5020404;28;19921;-42
2022/11/16 03:17:29;;;;;;;;;;;;;;;15.01;100.00;97380.03;5016507;28;19921;-42
2022/11/16 03:20:27;;;;;;;;;;;;;;;14.32;100.00;97359.25;5035055;28;19976;-42
2022/11/16 03:23:03;;;;;;;;;;;;;;;14.08;100.00;97379.97;5009515;28;19925;-42
2022/11/16 03:25:29;;;;;;;;;;;;;;;13.64;100.00;97377.94;5020953;28;19921;-42
2022/11/16 03:28:01;;;;;;;;;;;;;;;13.92;100.00;97384.59;5018885;28;19921;-42
2022/11/16 03:30:26;;;;;;;;;;;;;;;14.31;100.00;97385.25;5019205;28;19928;-41
2022/11/16 03:33:10;;;;;;;;;;;;;;;14.34;100.00;97385.00;5002777;28;20188;-42
2022/11/16 03:35:44;;;;;;;;;;;;;;;13.97;100.00;97392.84;5021428;28;19979;-42
2022/11/16 03:38:09;;;;;;;;;;;;;;;14.74;100.00;97388.09;5018663;28;19929;-42
2022/11/16 03:40:35;;;;;;;;;;;;;;;14.18;100.00;97373.16;5019394;28;19921;-42
2022/11/16 03:43:00;;;;;;;;;;;;;;;14.28;100.00;97383.72;5019821;28;20421;-42
2022/11/16 03:45:26;;;;;;;;;;;;;;;14.66;100.00;97387.03;5019820;28;19921;-42
2022/11/16 03:47:51;;;;;;;;;;;;;;;14.52;100.00;97377.66;5018077;28;20568;-42
2022/11/16 03:50:16;;;;;;;;;;;;;;;14.78;100.00;97383.50;5017985;28;19922;-42
2022/11/16 03:52:41;;;;;;;;;;;;;;;14.34;100.00;97387.59;5022058;28;19943;-42
2022/11/16 03:55:07;;;;;;;;;;;;;;;14.51;100.00;97383.78;5020717;28;20044;-42
2022/11/16 03:57:32;;;;;;;;;;;;;;;14.82;100.00;97390.13;5021116;28;19968;-42
2022/11/16 03:59:57;;;;;;;;;;;;;;;14.60;100.00;97390.91;5019404;28;20425;-42
2022/11/16 04:02:22;;;;;;;;;;;;;;;14.28;100.00;97399.25;5019959;28;20382;-42
2022/11/16 04:24:11;;;;;;;;;;;;;;;14.33;100.00;97404.09;5017741;28;20014;-41
2022/11/16 04:29:20;;;;;;;;;;;;;;;14.12;100.00;97417.66;5020751;28;20643;-41
2022/11/16 04:39:58;;;;;;;;;;;;;;;14.16;100.00;97408.72;5032407;28;20558;-41
2022/11/16 04:42:23;;;;;;;;;;;;;;;14.55;100.00;97408.53;5020634;28;19917;-41
2022/11/16 04:47:32;;;;;;;;;;;;;;;14.41;100.00;97407.78;5020462;28;19971;-41
2022/11/16 04:49:57;;;;;;;;;;;;;;;14.56;100.00;97408.44;5018529;28;19913;-41
2022/11/16 04:52:22;;;;;;;;;;;;;;;13.76;100.00;97411.56;5019394;28;19975;-41
2022/11/16 04:54:48;;;;;;;;;;;;;;;14.59;100.00;97415.97;5019276;28;19921;-41
2022/11/16 04:57:13;;;;;;;;;;;;;;;14.75;100.00;97409.66;5019513;28;19921;-41
2022/11/16 04:59:38;;;;;;;;;;;;;;;14.10;100.00;97422.09;5018268;28;19921;-41
2022/11/16 05:02:09;;;;;;;;;;;;;;;14.14;100.00;97410.59;5019240;28;19987;-41
2022/11/16 05:04:35;;;;;;;;;;;;;;;13.93;100.00;97423.28;5018328;28;19956;-41
2022/11/16 05:07:00;;;;;;;;;;;;;;;14.23;100.00;97420.28;5018178;28;19956;-41
2022/11/16 05:09:25;;;;;;;;;;;;;;;14.27;100.00;97409.69;5018337;28;19921;-41
2022/11/16 05:11:51;;;;;;;;;;;;;;;14.53;100.00;97411.22;5019327;28;19929;-41
2022/11/16 05:14:16;;;;;;;;;;;;;;;14.13;100.00;97408.13;5018277;28;19928;-41
2022/11/16 05:16:41;;;;;;;;;;;;;;;14.39;100.00;97416.56;5017109;28;19928;-42
2022/11/16 05:21:50;;;;;;;;;;;;;;;14.67;100.00;97412.81;5015471;28;20013;-42
2022/11/16 05:24:32;;;;;;;;;;;;;;;13.87;100.00;97421.16;5018334;28;20307;-46
2022/11/16 05:26:58;;;;;;;;;;;;;;;14.46;100.00;97412.63;5020127;28;19924;-42
2022/11/16 05:29:24;;;;;;;;;;;;;;;14.95;100.00;97416.75;5018890;28;19917;-42
2022/11/16 05:31:49;;;;;;;;;;;;;;;14.12;100.00;97412.47;5019250;28;19921;-42
2022/11/16 05:34:14;;;;;;;;;;;;;;;14.64;100.00;97413.03;5018888;28;20314;-42
2022/11/16 05:36:39;;;;;;;;;;;;;;;14.24;100.00;97415.94;5019430;28;20267;-42
2022/11/16 05:39:05;;;;;;;;;;;;;;;15.32;100.00;97413.97;5018794;28;20290;-42
2022/11/16 05:41:30;;;;;;;;;;;;;;;14.97;100.00;97409.69;5019343;28;19917;-42
2022/11/16 05:43:55;;;;;;;;;;;;;;;14.95;100.00;97410.75;5016989;28;20055;-42
2022/11/16 05:46:21;;;;;;;;;;;;;;;14.94;100.00;97414.28;5016362;28;19921;-42
2022/11/16 05:48:46;;;;;;;;;;;;;;;14.52;100.00;97425.09;5016432;28;19976;-41
2022/11/16 05:51:11;;;;;;;;;;;;;;;14.84;100.00;97429.69;5019998;28;20455;-41
2022/11/16 05:53:36;;;;;;;;;;;;;;;15.23;100.00;97427.63;5019434;28;20902;-41
2022/11/16 05:56:01;;;;;;;;;;;;;;;14.77;100.00;97424.16;5018031;28;20448;-41
2022/11/16 05:58:27;;;;;;;;;;;;;;;14.90;100.00;97429.25;5019292;28;19971;-42
2022/11/16 06:00:52;;;;;;;;;;;;;;;14.37;100.00;97431.41;5019610;28;19917;-41
2022/11/16 06:03:17;;;;;;;;;;;;;;;14.97;100.00;97437.41;5019519;28;19936;-41
2022/11/16 06:05:42;;;;;;;;;;;;;;;14.80;100.00;97428.28;5017023;28;19917;-41
2022/11/16 06:08:07;;;;;;;;;;;;;;;14.68;100.00;97429.19;5017435;28;19928;-41
2022/11/16 06:10:33;;;;;;;;;;;;;;;14.85;100.00;97426.19;5018501;28;19928;-41
2022/11/16 06:12:58;;;;;;;;;;;;;;;14.74;100.00;97428.75;5019142;28;19921;-41
2022/11/16 06:15:23;;;;;;;;;;;;;;;14.62;100.00;97431.31;5019007;28;19975;-41
2022/11/16 06:17:48;;;;;;;;;;;;;;;14.81;100.00;97424.75;5018314;28;19917;-41
2022/11/16 06:20:14;;;;;;;;;;;;;;;14.68;100.00;97436.97;5018480;28;19913;-41
2022/11/16 06:22:39;;;;;;;;;;;;;;;14.41;100.00;97433.69;5019224;28;19969;-41
2022/11/16 06:25:07;;;;;;;;;;;;;;;14.13;100.00;97450.34;5019492;28;19913;-41
2022/11/16 06:27:33;;;;;;;;;;;;;;;14.39;100.00;97453.69;5018652;28;20004;-41
2022/11/16 06:29:59;;;;;;;;;;;;;;;14.95;100.00;97460.84;5018603;28;20352;-41
2022/11/16 06:32:24;;;;;;;;;;;;;;;15.10;100.00;97463.22;5018979;28;19924;-41
2022/11/16 06:34:50;;;;;;;;;;;;;;;14.93;100.00;97454.94;5034797;28;19917;-41
2022/11/16 06:37:15;;;;;;;;;;;;;;;14.93;100.00;97449.75;5019762;28;20674;-41
2022/11/16 06:39:40;;;;;;;;;;;;;;;14.66;100.00;97454.38;5019999;28;19917;-41
2022/11/16 06:42:05;;;;;;;;;;;;;;;15.15;100.00;97458.53;5023049;28;19928;-41
2022/11/16 06:44:30;;;;;;;;;;;;;;;14.26;100.00;97460.66;5022707;28;19913;-41
2022/11/16 06:46:56;;;;;;;;;;;;;;;14.41;100.00;97476.84;5022852;28;19963;-42
2022/11/16 06:49:21;;;;;;;;;;;;;;;14.06;100.00;97471.63;5020509;28;19917;-41
2022/11/16 06:51:46;;;;;;;;;;;;;;;14.17;100.00;97477.69;5023832;28;19971;-41
2022/11/16 06:54:11;;;;;;;;;;;;;;;14.48;100.00;97485.84;5022150;28;19921;-41
2022/11/16 06:56:36;;;;;;;;;;;;;;;14.61;100.00;97475.44;5021910;28;20008;-41
2022/11/16 06:59:02;;;;;;;;;;;;;;;14.35;100.00;97479.91;5021882;28;19917;-41
2022/11/16 07:01:27;;;;;;;;;;;;;;;14.53;100.00;97483.75;5021469;28;19917;-41
2022/11/16 07:03:52;;;;;;;;;;;;;;;14.52;100.00;97487.28;5022666;28;20875;-41
2022/11/16 07:06:17;;;;;;;;;;;;;;;14.36;100.00;97481.53;5022005;28;20302;-40
2022/11/16 07:08:43;;;;;;;;;;;;;;;14.48;100.00;97495.38;5020445;28;20518;-41
2022/11/16 07:11:08;;;;;;;;;;;;;;;14.48;100.00;97493.59;5022424;28;20004;-41
2022/11/16 07:13:34;;;;;;;;;;;;;;;14.57;100.00;97500.78;5021306;28;20055;-40
2022/11/16 07:16:02;;;;;;;;;;;;;;;14.17;100.00;97498.41;5022630;28;20279;-41
2022/11/16 07:18:28;;;;;;;;;;;;;;;14.26;100.00;97501.28;5022090;28;19940;-41
2022/11/16 07:20:53;;;;;;;;;;;;;;;14.92;100.00;97493.94;5022220;28;20362;-41
2022/11/16 07:23:18;;;;;;;;;;;;;;;14.90;100.00;97495.81;5021803;28;19921;-41
2022/11/16 07:25:46;;;;;;;;;;;;;;;14.85;100.00;97490.97;5021974;28;19933;-41
2022/11/16 07:28:11;;;;;;;;;;;;;;;15.66;100.00;97484.03;5020396;28;19917;-41
2022/11/16 07:30:36;;;;;;;;;;;;;;;15.77;100.00;97473.66;5022090;28;20007;-41
2022/11/16 07:33:01;;;;;;;;;;;;;;;15.06;100.00;97478.19;5022019;28;20508;-41
2022/11/16 07:35:27;;;;;;;;;;;;;;;15.11;100.00;97488.22;5022125;28;19971;-41
2022/11/16 07:37:52;;;;;;;;;;;;;;;15.56;100.00;97496.06;5021795;28;20341;-41
2022/11/16 07:40:17;;;;;;;;;;;;;;;15.27;100.00;97499.09;5021601;28;19917;-41
2022/11/16 07:42:44;;;;;;;;;;;;;;;15.86;100.00;97493.72;5022126;28;20325;-41
2022/11/16 07:45:09;;;;;;;;;;;;;;;16.18;100.00;97485.19;5021165;28;19917;-41
2022/11/16 07:47:35;;;;;;;;;;;;;;;16.12;100.00;97485.66;5019823;28;20301;-41
2022/11/16 07:50:00;;;;;;;;;;;;;;;16.22;100.00;97489.19;5020392;28;19924;-41
2022/11/16 07:52:26;;;;;;;;;;;;;;;15.74;100.00;97479.13;5020460;28;19917;-41
2022/11/16 07:54:51;;;;;;;;;;;;;;;16.30;100.00;97492.00;5022032;28;20564;-41
2022/11/16 07:57:16;;;;;;;;;;;;;;;16.24;100.00;97492.50;5021031;28;19943;-41
2022/11/16 07:59:41;;;;;;;;;;;;;;;15.75;100.00;97490.31;5011665;28;19928;-41
2022/11/16 08:02:08;;;;;;;;;;;;;;;16.61;100.00;97496.53;5020362;28;19921;-41
2022/11/16 08:04:33;;;;;;;;;;;;;;;16.58;100.00;97489.81;5021391;28;19928;-41
2022/11/16 08:06:58;;;;;;;;;;;;;;;16.32;100.00;97494.47;5020772;28;19917;-41
2022/11/16 08:09:23;;;;;;;;;;;;;;;16.19;100.00;97498.97;5021269;28;19917;-41
2022/11/16 08:11:50;;;;;;;;;;;;;;;16.36;100.00;97505.47;5019720;28;19917;-41
2022/11/16 08:14:17;;;;;;;;;;;;;;;16.60;100.00;97505.25;5020066;28;19925;-41
2022/11/16 08:16:42;;;;;;;;;;;;;;;16.27;100.00;97502.63;5019981;28;19921;-41
2022/11/16 08:19:09;;;;;;;;;;;;;;;16.95;100.00;97493.81;5020575;28;19917;-41
2022/11/16 08:21:34;;;;;;;;;;;;;;;16.45;100.00;97491.72;5020571;28;19916;-41
2022/11/16 08:23:59;;;;;;;;;;;;;;;16.66;100.00;97490.00;5019434;28;19921;-41
2022/11/16 08:26:24;;;;;;;;;;;;;;;16.97;100.00;97497.94;5021357;28;19986;-41
2022/11/16 08:28:52;;;;;;;;;;;;;;;16.90;100.00;97494.16;5001850;28;19927;-41
2022/11/16 08:31:19;;;;;;;;;;;;;;;15.97;100.00;97502.47;5008907;28;19952;-41
2022/11/16 08:33:45;;;;;;;;;;;;;;;16.00;100.00;97505.63;5020345;28;19921;-41
2022/11/16 08:36:12;;;;;;;;;;;;;;;15.95;100.00;97512.97;5019673;28;19932;-41
2022/11/16 08:38:39;;;;;;;;;;;;;;;16.59;100.00;97520.03;5020596;28;19944;-41
2022/11/16 08:41:04;;;;;;;;;;;;;;;15.68;100.00;97523.66;5020519;28;20007;-41
2022/11/16 08:43:29;;;;;;;;;;;;;;;16.24;100.00;97523.66;5020884;28;19932;-41
2022/11/16 08:45:56;;;;;;;;;;;;;;;16.22;100.00;97532.53;5020419;28;19917;-41
2022/11/16 08:48:21;;;;;;;;;;;;;;;16.33;100.00;97523.88;5019377;28;19917;-41
2022/11/16 08:50:46;;;;;;;;;;;;;;;16.51;100.00;97519.81;5019069;28;19920;-41
2022/11/16 08:53:14;;;;;;;;;;;;;;;15.61;100.00;97538.06;5020941;28;19921;-41
2022/11/16 08:55:39;;;;;;;;;;;;;;;16.05;100.00;97534.66;5021077;28;20464;-41
2022/11/16 08:58:04;;;;;;;;;;;;;;;15.93;100.00;97543.41;5020453;28;19996;-42
2022/11/16 09:00:29;;;;;;;;;;;;;;;15.58;100.00;97559.06;5019506;28;19917;-41
2022/11/16 09:02:55;;;;;;;;;;;;;;;16.02;100.00;97552.25;5018559;28;19921;-41
2022/11/16 09:05:20;;;;;;;;;;;;;;;16.44;100.00;97557.63;5020124;28;19917;-41
2022/11/16 09:07:45;;;;;;;;;;;;;;;16.02;100.00;97555.66;5020223;28;19959;-41
2022/11/16 09:10:11;;;;;;;;;;;;;;;15.83;100.00;97566.66;5018414;28;19956;-42
2022/11/16 09:34:27;;;;;;;;;;;;;;;16.57;100.00;97553.09;5018884;28;20011;-42
2022/11/16 09:36:52;;;;;;;;;;;;;;;16.92;100.00;97547.72;5019435;28;19970;-42
2022/11/16 09:39:18;;;;;;;;;;;;;;;16.45;100.00;97554.09;5019919;28;20354;-42
2022/11/16 09:41:46;;;;;;;;;;;;;;;16.69;100.00;97557.34;5020075;28;20285;-42
2022/11/16 09:44:30;;;;;;;;;;;;;;;17.09;100.00;97548.13;5018693;28;20448;-42
2022/11/16 09:46:55;;;;;;;;;;;;;;;17.01;100.00;97551.31;5019759;28;19963;-42
2022/11/16 09:49:22;;;;;;;;;;;;;;;16.98;100.00;97551.59;5018027;28;19970;-42
2022/11/16 09:51:49;;;;;;;;;;;;;;;17.20;100.00;97555.88;5019245;28;19932;-42
2022/11/16 09:54:15;;;;;;;;;;;;;;;17.40;100.00;97556.78;5019855;28;19917;-42
2022/11/16 09:56:41;;;;;;;;;;;;;;;17.38;100.00;97553.53;5020003;28;19917;-42
2022/11/16 09:59:06;;;;;;;;;;;;;;;16.83;100.00;97552.81;5000851;28;19917;-42
2022/11/16 10:01:33;;;;;;;;;;;;;;;16.30;100.00;97562.13;5019249;28;19936;-42
2022/11/16 10:04:10;;;;;;;;;;;;;;;15.78;100.00;97571.38;5019518;28;19927;-42
2022/11/16 10:06:55;;;;;;;;;;;;;;;16.16;100.00;97562.38;5018878;28;20036;-42
2022/11/16 10:09:21;;;;;;;;;;;;;;;16.76;100.00;97556.84;5015169;28;19917;-42
2022/11/16 10:12:06;;;;;;;;;;;;;;;17.31;100.00;97540.19;5017676;28;19924;-42
2022/11/16 10:14:40;;;;;;;;;;;;;;;17.12;100.00;97547.84;5018661;28;19921;-42
2022/11/16 10:17:15;;;;;;;;;;;;;;;16.51;100.00;97543.19;5018924;28;19917;-41
2022/11/16 10:19:59;;;;;;;;;;;;;;;16.94;100.00;97544.97;5017449;28;19917;-42
2022/11/16 10:22:39;;;;;;;;;;;;;;;17.13;100.00;97537.34;5019127;28;19921;-41
2022/11/16 10:25:21;;;;;;;;;;;;;;;16.01;100.00;97541.06;5019735;28;20528;-42
2022/11/16 10:27:46;;;;;;;;;;;;;;;16.26;100.00;97545.16;5019970;28;19940;-42
2022/11/16 10:30:12;;;;;;;;;;;;;;;16.78;100.00;97529.75;5018586;28;19917;-42
2022/11/16 10:32:38;;;;;;;;;;;;;;;16.85;100.00;97530.13;5018263;28;20051;-41
2022/11/16 10:35:26;;;;;;;;;;;;;;;17.16;100.00;97543.25;5019773;28;20003;-41
2022/11/16 10:37:51;;;;;;;;;;;;;;;17.28;100.00;97539.63;5012672;28;19917;-42
2022/11/16 10:40:35;;;;;;;;;;;;;;;17.03;100.00;97539.03;5018966;28;20404;-42
2022/11/16 10:43:04;;;;;;;;;;;;;;;16.67;100.00;97528.03;5019071;28;20390;-42
2022/11/16 10:45:48;;;;;;;;;;;;;;;16.56;100.00;97535.88;5018037;28;20366;-41
2022/11/16 10:48:16;;;;;;;;;;;;;;;16.33;100.00;97536.84;5018229;28;19914;-42
2022/11/16 10:50:45;;;;;;;;;;;;;;;16.64;100.00;97530.88;5019017;28;19924;-42
2022/11/16 10:53:14;;;;;;;;;;;;;;;17.27;100.00;97530.16;5019538;28;19917;-42
2022/11/16 10:55:39;;;;;;;;;;;;;;;17.93;100.00;97516.84;5018004;28;19917;-41
2022/11/16 10:58:05;;;;;;;;;;;;;;;17.75;100.00;97519.19;5018401;28;20463;-42
2022/11/16 11:00:36;;;;;;;;;;;;;;;17.76;100.00;97520.81;5018888;28;19917;-41
2022/11/16 11:03:02;;;;;;;;;;;;;;;18.77;100.00;97511.22;5018600;28;19928;-41
2022/11/16 11:05:27;;;;;;;;;;;;;;;17.34;100.00;97505.28;5019349;28;19913;-41
2022/11/16 11:08:01;;;;;;;;;;;;;;;17.63;100.00;97512.41;5017575;28;19921;-42
2022/11/16 11:10:26;;;;;;;;;;;;;;;17.65;100.00;97515.69;5018863;28;19939;-42
2022/11/16 11:13:03;;;;;;;;;;;;;;;17.28;100.00;97519.63;5018958;28;20344;-42
2022/11/16 11:15:28;;;;;;;;;;;;;;;18.69;100.00;97504.06;5019348;28;20547;-42
2022/11/16 11:18:26;;;;;;;;;;;;;;;17.76;100.00;97510.41;5018982;28;20054;-42
2022/11/16 11:21:12;;;;;;;;;;;;;;;17.88;100.00;97509.41;5006481;28;19951;-42
2022/11/16 11:23:55;;;;;;;;;;;;;;;18.44;100.00;97500.22;5020625;28;19917;-42
2022/11/16 11:26:27;;;;;;;;;;;;;;;17.88;100.00;97509.41;5022135;28;19920;-44
2022/11/16 11:28:52;;;;;;;;;;;;;;;18.57;100.00;97519.03;5021891;28;19944;-41
2022/11/16 11:31:38;;;;;;;;;;;;;;;18.92;100.00;97503.84;5022677;28;20375;-42
2022/11/16 11:34:30;;;;;;;;;;;;;;;18.97;100.00;97496.41;5020713;28;19921;-42
2022/11/16 11:36:55;;;;;;;;;;;;;;;18.96;100.00;97489.56;5028167;28;19970;-42
2022/11/16 11:39:21;;;;;;;;;;;;;;;18.42;100.00;97496.09;5021867;28;19996;-42
2022/11/16 11:41:59;;;;;;;;;;;;;;;19.26;100.00;97477.28;5022615;28;20414;-41
2022/11/16 11:44:51;;;;;;;;;;;;;;;19.59;100.00;97487.22;5021829;28;19931;-42
2022/11/16 11:47:35;;;;;;;;;;;;;;;19.18;100.00;97484.03;5020645;28;19917;-42
2022/11/16 11:50:12;;;;;;;;;;;;;;;19.09;100.00;97491.84;5020822;28;19921;-42
2022/11/16 11:52:43;;;;;;;;;;;;;;;18.45;100.00;97490.59;5020486;28;19974;-46
2022/11/16 11:55:12;;;;;;;;;;;;;;;18.70;100.00;97492.69;5020420;28;19917;-42
2022/11/16 11:57:38;;;;;;;;;;;;;;;18.59;100.00;97498.03;5020733;28;19917;-42
2022/11/16 12:00:04;;;;;;;;;;;;;;;18.81;100.00;97486.53;5020140;28;20020;-42
2022/11/16 12:02:36;;;;;;;;;;;;;;;19.11;100.00;97482.94;5021118;28;20007;-41
2022/11/16 12:05:04;;;;;;;;;;;;;;;19.31;100.00;97473.25;5020211;28;19947;-42
2022/11/16 12:07:47;;;;;;;;;;;;;;;18.64;100.00;97482.81;5021720;28;19917;-42
2022/11/16 12:10:25;;;;;;;;;;;;;;;19.10;100.00;97475.25;5019318;28;20404;-41
2022/11/16 12:12:58;;;;;;;;;;;;;;;17.84;100.00;97476.78;5021851;28;19917;-42
2022/11/16 12:15:27;;;;;;;;;;;;;;;18.50;100.00;97483.22;5020802;28;20317;-42
2022/11/16 12:18:11;;;;;;;;;;;;;;;19.02;100.00;97473.31;5003532;28;19921;-42
2022/11/16 12:20:46;;;;;;;;;;;;;;;19.06;100.00;97469.47;5003696;28;20008;-41
2022/11/16 12:23:29;;;;;;;;;;;;;;;19.61;100.00;97459.16;5020966;28;19999;-41
2022/11/16 12:25:55;;;;;;;;;;;;;;;19.75;100.00;97457.06;5021188;28;19917;-42
2022/11/16 12:28:39;;;;;;;;;;;;;;;19.72;100.00;97452.13;5020392;28;19924;-42
2022/11/16 12:31:23;;;;;;;;;;;;;;;19.83;100.00;97457.16;5022029;28;19918;-42
2022/11/16 12:33:48;;;;;;;;;;;;;;;19.73;99.96;97446.78;5020437;28;19921;-42
2022/11/16 12:36:36;;;;;;;;;;;;;;;18.17;100.00;97466.97;5019857;28;19917;-41
2022/11/16 12:39:14;;;;;;;;;;;;;;;19.07;100.00;97459.84;5009906;28;19924;-42
2022/11/16 12:41:48;;;;;;;;;;;;;;;19.03;100.00;97454.13;5020073;28;20036;-41
2022/11/16 12:44:17;;;;;;;;;;;;;;;19.69;100.00;97447.22;5020601;28;20034;-42
2022/11/16 12:47:00;;;;;;;;;;;;;;;19.06;98.20;97432.94;5021142;28;20428;-42
2022/11/16 12:49:41;;;;;;;;;;;;;;;18.64;100.00;97454.13;5018238;28;19917;-42
2022/11/16 12:52:17;;;;;;;;;;;;;;;19.39;100.00;97442.06;5019626;28;19917;-42
2022/11/16 12:54:48;;;;;;;;;;;;;;;18.18;100.00;97455.59;5020213;28;20008;-42
2022/11/16 12:57:20;;;;;;;;;;;;;;;18.54;100.00;97448.91;5020582;28;19928;-42
2022/11/16 12:59:52;;;;;;;;;;;;;;;17.89;100.00;97451.16;5018833;28;19919;-42
2022/11/16 13:02:36;;;;;;;;;;;;;;;18.63;100.00;97431.59;5019594;28;19972;-42
2022/11/16 13:05:11;;;;;;;;;;;;;;;18.84;100.00;97422.81;5020538;28;20015;-42
2022/11/16 13:07:40;;;;;;;;;;;;;;;18.41;100.00;97430.13;5019426;28;19917;-42
2022/11/16 13:10:08;;;;;;;;;;;;;;;18.99;100.00;97422.25;5019596;28;19916;-42
2022/11/16 13:12:34;;;;;;;;;;;;;;;18.38;100.00;97420.78;5019433;28;19920;-41
2022/11/16 13:14:59;;;;;;;;;;;;;;;19.20;100.00;97413.41;5018135;28;19921;-42
2022/11/16 13:17:26;;;;;;;;;;;;;;;18.61;100.00;97417.91;5020805;28;19917;-42
2022/11/16 13:20:14;;;;;;;;;;;;;;;19.42;100.00;97407.00;5019434;28;19986;-42
2022/11/16 13:22:41;;;;;;;;;;;;;;;19.31;99.03;97396.75;5017327;28;20419;-42
2022/11/16 13:25:22;;;;;;;;;;;;;;;18.79;100.00;97418.03;5019519;28;19921;-42
2022/11/16 13:27:54;;;;;;;;;;;;;;;19.71;98.78;97406.09;5019888;28;19967;-41
2022/11/16 13:30:20;;;;;;;;;;;;;;;19.52;97.76;97407.78;5019973;28;20289;-42
2022/11/16 13:32:45;;;;;;;;;;;;;;;19.86;96.76;97399.38;5017230;28;19917;-42
2022/11/16 13:35:13;;;;;;;;;;;;;;;19.62;98.45;97403.34;5020314;28;19917;-42
2022/11/16 13:37:38;;;;;;;;;;;;;;;19.90;95.37;97397.31;5018961;28;19917;-41
2022/11/16 13:40:03;;;;;;;;;;;;;;;20.29;94.15;97397.88;5019184;28;20337;-41
2022/11/16 13:42:29;;;;;;;;;;;;;;;20.31;94.99;97393.31;5019994;28;19925;-41
2022/11/16 13:45:03;;;;;;;;;;;;;;;20.28;94.42;97393.63;5018757;28;19917;-41